KBRD/BRD METAR and TAF weather

Enter ICAO airport designator
Station Type Date Time Source
KBRD METAR 2020/12/05 04:53 UTC NOAA

KBRD 050453Z AUTO 00000KT 10SM CLR M07/M09 A3010 RMK AO2 SLP212 I1000 T10671089


Station Type Date Time Source
KBRD Decoded METAR 2020/12/05 04:53 UTC NOAA

BRAINERD-CROW WING CO AIRPORT , MN, United States (KBRD) 46-24N 94-08W 372M
Dec 04, 2020 - 11:53 PM EST / 2020.12.05 0453 UTC
Wind: Calm:0
Visibility: 10 mile(s):0
Sky conditions: clear
Temperature: 19.9 F (-6.7 C)
Dew Point: 16.0 F (-8.9 C)
Relative Humidity: 84%
Pressure (altimeter): 30.1 in. Hg (1019 hPa)
ob: KBRD 050453Z AUTO 00000KT 10SM CLR M07/M09 A3010 RMK AO2 SLP212 I1000 T10671089
cycle: 5

Station Type Date Time Source
KBRD TAF 2020/12/05 06:36 UTC NOAA

TAF KBRD 050533Z 0506/0606 VRB04KT P6SM FEW200
FM051800 00000KT P6SM BKN045
FM052100 VRB03KT P6SM OVC025
FM060000 34004KT P6SM OVC015

Example: see airport list